Time,TemperatureF,DewpointF,PressureIn,WindDirection,WindDirectionDegrees,WindSpeedMPH,WindSpeedGustMPH,Humidity,HourlyPrecipIn,Conditions,Clouds,dailyrainin,SoftwareType,DateUTC
2013-09-13 00:01:00,63.0,52.3,30.16,East,85,0.0,0.0,68,0.00,,,0.00,Wunderground v.1.15,2013-09-13 05:01:00,
2013-09-13 00:11:00,64.4,52.4,30.16,East,79,0.0,1.0,65,0.00,,,0.00,Wunderground v.1.15,2013-09-13 05:11:00,
2013-09-13 00:21:00,64.3,52.7,30.16,East,79,0.0,0.0,66,0.00,,,0.00,Wunderground v.1.15,2013-09-13 05:21:00,
2013-09-13 00:31:00,63.7,52.1,30.16,East,79,0.0,0.0,66,0.00,,,0.00,Wunderground v.1.15,2013-09-13 05:31:00,
2013-09-13 00:41:00,63.0,51.9,30.16,East,79,0.0,0.0,67,0.00,,,0.00,Wunderground v.1.15,2013-09-13 05:41:00,
2013-09-13 00:51:00,62.6,52.3,30.16,East,79,0.0,0.0,69,0.00,,,0.00,Wunderground v.1.15,2013-09-13 05:51:00,
2013-09-13 00:56:00,62.4,52.1,30.16,East,79,0.0,0.0,69,0.00,,,0.00,Wunderground v.1.15,2013-09-13 05:56:00,
2013-09-13 01:01:00,62.1,52.6,30.16,ENE,77,0.0,0.0,71,0.00,,,0.00,Wunderground v.1.15,2013-09-13 06:01:00,
2013-09-13 01:11:00,61.6,52.5,30.16,ENE,78,0.0,0.0,72,0.00,,,0.00,Wunderground v.1.15,2013-09-13 06:11:00,
2013-09-13 01:16:00,61.2,52.1,30.16,ENE,77,0.0,0.0,72,0.00,,,0.00,Wunderground v.1.15,2013-09-13 06:16:00,
2013-09-13 01:26:00,60.8,52.5,30.16,ENE,67,0.0,0.0,74,0.00,,,0.00,Wunderground v.1.15,2013-09-13 06:26:00,
2013-09-13 01:31:00,60.7,52.4,30.16,ENE,65,0.0,0.0,74,0.00,,,0.00,Wunderground v.1.15,2013-09-13 06:31:00,
2013-09-13 01:41:00,60.7,52.0,30.16,NNW,347,0.0,0.0,73,0.00,,,0.00,Wunderground v.1.15,2013-09-13 06:41:00,
2013-09-13 01:51:00,60.3,52.0,30.16,NNW,340,0.0,0.0,74,0.00,,,0.00,Wunderground v.1.15,2013-09-13 06:51:00,
2013-09-13 02:01:00,60.1,52.1,30.16,NNW,340,0.0,0.0,75,0.00,,,0.00,Wunderground v.1.15,2013-09-13 07:01:00,
2013-09-13 02:06:00,60.1,52.1,30.16,NNW,340,0.0,0.0,75,0.00,,,0.00,Wunderground v.1.15,2013-09-13 07:06:00,
2013-09-13 02:16:00,60.1,52.1,30.16,NNW,340,0.0,0.0,75,0.00,,,0.00,Wunderground v.1.15,2013-09-13 07:16:00,
2013-09-13 02:21:00,60.2,51.9,30.16,NNW,340,0.0,0.0,74,0.00,,,0.00,Wunderground v.1.15,2013-09-13 07:21:00,
2013-09-13 02:31:00,59.8,52.2,30.16,NNW,340,0.0,0.0,76,0.00,,,0.00,Wunderground v.1.15,2013-09-13 07:31:00,
2013-09-13 02:41:00,59.5,51.9,30.16,NNW,340,0.0,0.0,76,0.00,,,0.00,Wunderground v.1.15,2013-09-13 07:41:00,
2013-09-13 02:51:00,59.6,52.0,30.16,NNW,340,0.0,0.0,76,0.00,,,0.00,Wunderground v.1.15,2013-09-13 07:51:00,
2013-09-13 02:56:00,59.6,51.7,30.16,NNW,340,0.0,0.0,75,0.00,,,0.00,Wunderground v.1.15,2013-09-13 07:56:00,
2013-09-13 03:06:00,59.3,51.7,30.16,NNW,340,0.0,0.0,76,0.00,,,0.00,Wunderground v.1.15,2013-09-13 08:06:00,
2013-09-13 03:11:00,59.3,51.7,30.16,NNW,340,0.0,0.0,76,0.00,,,0.00,Wunderground v.1.15,2013-09-13 08:11:00,
2013-09-13 03:21:00,59.2,51.6,30.16,NNW,340,0.0,0.0,76,0.00,,,0.00,Wunderground v.1.15,2013-09-13 08:21:00,
2013-09-13 03:26:00,59.1,51.5,30.16,NNW,340,0.0,0.0,76,0.00,,,0.00,Wunderground v.1.15,2013-09-13 08:26:00,
2013-09-13 03:36:00,58.7,51.5,30.16,NNW,340,0.0,0.0,77,0.00,,,0.00,Wunderground v.1.15,2013-09-13 08:36:00,
2013-09-13 03:41:00,58.9,51.7,30.16,NNW,335,0.0,0.0,77,0.00,,,0.00,Wunderground v.1.15,2013-09-13 08:41:00,
2013-09-13 03:51:00,59.0,51.8,30.16,NNW,335,0.0,0.0,77,0.00,,,0.00,Wunderground v.1.15,2013-09-13 08:51:00,
2013-09-13 04:01:00,58.5,51.7,30.16,West,274,0.0,0.0,78,0.00,,,0.00,Wunderground v.1.15,2013-09-13 09:01:00,
2013-09-13 04:11:00,58.7,51.5,30.17,West,274,0.0,0.0,77,0.00,,,0.00,Wunderground v.1.15,2013-09-13 09:11:00,
2013-09-13 04:16:00,58.8,51.6,30.17,West,274,0.0,0.0,77,0.00,,,0.00,Wunderground v.1.15,2013-09-13 09:16:00,
2013-09-13 04:26:00,58.8,51.6,30.17,West,274,0.0,0.0,77,0.00,,,0.00,Wunderground v.1.15,2013-09-13 09:26:00,
2013-09-13 04:31:00,58.6,51.4,30.17,West,274,0.0,0.0,77,0.00,,,0.00,Wunderground v.1.15,2013-09-13 09:31:00,
2013-09-13 04:41:00,58.2,51.4,30.17,West,274,0.0,0.0,78,0.00,,,0.00,Wunderground v.1.15,2013-09-13 09:41:00,
2013-09-13 04:46:00,58.0,51.5,30.17,West,274,0.0,0.0,79,0.00,,,0.00,Wunderground v.1.15,2013-09-13 09:46:00,
2013-09-13 04:56:00,57.4,51.3,30.17,West,274,0.0,0.0,80,0.00,,,0.00,Wunderground v.1.15,2013-09-13 09:56:00,
2013-09-13 05:06:00,57.1,51.0,30.17,West,274,0.0,0.0,80,0.00,,,0.00,Wunderground v.1.15,2013-09-13 10:06:00,
2013-09-13 05:16:00,56.3,50.9,30.17,West,274,0.0,0.0,82,0.00,,,0.00,Wunderground v.1.15,2013-09-13 10:16:00,
2013-09-13 05:26:00,55.7,50.9,30.18,West,274,0.0,0.0,84,0.00,,,0.00,Wunderground v.1.15,2013-09-13 10:26:00,
2013-09-13 05:31:00,55.5,51.1,30.17,West,274,0.0,0.0,85,0.00,,,0.00,Wunderground v.1.15,2013-09-13 10:31:00,
2013-09-13 05:41:00,55.7,50.9,30.18,West,274,0.0,0.0,84,0.00,,,0.00,Wunderground v.1.15,2013-09-13 10:41:00,
2013-09-13 05:46:00,55.8,51.0,30.18,West,274,0.0,0.0,84,0.00,,,0.00,Wunderground v.1.15,2013-09-13 10:46:00,
2013-09-13 05:51:00,55.9,51.1,30.18,West,274,0.0,0.0,84,0.00,,,0.00,Wunderground v.1.15,2013-09-13 10:51:00,
2013-09-13 06:01:00,56.3,50.9,30.18,West,274,0.0,0.0,82,0.00,,,0.00,Wunderground v.1.15,2013-09-13 11:01:00,
2013-09-13 06:06:00,56.2,50.8,30.18,West,274,0.0,0.0,82,0.00,,,0.00,Wunderground v.1.15,2013-09-13 11:06:00,
2013-09-13 06:16:00,55.3,50.5,30.18,West,274,0.0,0.0,84,0.00,,,0.00,Wunderground v.1.15,2013-09-13 11:16:00,
2013-09-13 06:21:00,55.1,50.7,30.18,West,274,0.0,0.0,85,0.00,,,0.00,Wunderground v.1.15,2013-09-13 11:21:00,
2013-09-13 06:31:00,54.3,50.5,30.18,West,274,0.0,0.0,87,0.00,,,0.00,Wunderground v.1.15,2013-09-13 11:31:00,
2013-09-13 06:36:00,53.9,50.7,30.18,West,274,0.0,0.0,89,0.00,,,0.00,Wunderground v.1.15,2013-09-13 11:36:00,
2013-09-13 06:46:00,53.4,50.5,30.18,West,274,0.0,0.0,90,0.00,,,0.00,Wunderground v.1.15,2013-09-13 11:46:00,
2013-09-13 06:51:00,53.4,50.8,30.19,West,274,0.0,0.0,91,0.00,,,0.00,Wunderground v.1.15,2013-09-13 11:51:00,
2013-09-13 07:01:00,53.7,51.1,30.19,West,274,0.0,0.0,91,0.00,,,0.00,Wunderground v.1.15,2013-09-13 12:01:00,
2013-09-13 07:06:00,53.8,50.9,30.19,West,274,0.0,0.0,90,0.00,,,0.00,Wunderground v.1.15,2013-09-13 12:06:00,
2013-09-13 07:16:00,53.4,50.5,30.19,West,274,0.0,0.0,90,0.00,,,0.00,Wunderground v.1.15,2013-09-13 12:16:00,
2013-09-13 07:21:00,53.4,50.5,30.19,West,276,0.0,0.0,90,0.00,,,0.00,Wunderground v.1.15,2013-09-13 12:21:00,
2013-09-13 07:31:00,55.2,52.0,30.19,West,276,0.0,0.0,89,0.00,,,0.00,Wunderground v.1.15,2013-09-13 12:31:00,
2013-09-13 07:41:00,57.0,52.5,30.19,West,274,0.0,0.0,85,0.00,,,0.00,Wunderground v.1.15,2013-09-13 12:41:00,
2013-09-13 07:46:00,58.1,52.3,30.20,ENE,65,0.0,0.0,81,0.00,,,0.00,Wunderground v.1.15,2013-09-13 12:46:00,
2013-09-13 07:56:00,59.1,52.9,30.20,ENE,65,0.0,0.0,80,0.00,,,0.00,Wunderground v.1.15,2013-09-13 12:56:00,
2013-09-13 08:06:00,59.8,52.9,30.20,ENE,71,0.0,1.0,78,0.00,,,0.00,Wunderground v.1.15,2013-09-13 13:06:00,
2013-09-13 08:16:00,60.3,53.4,30.19,ENE,64,0.0,1.0,78,0.00,,,0.00,Wunderground v.1.15,2013-09-13 13:16:00,
2013-09-13 08:26:00,61.1,52.4,30.20,East,91,0.0,1.0,73,0.00,,,0.00,Wunderground v.1.15,2013-09-13 13:26:00,
2013-09-13 08:31:00,61.4,52.7,30.20,East,96,1.0,1.0,73,0.00,,,0.00,Wunderground v.1.15,2013-09-13 13:31:00,
2013-09-13 08:41:00,61.8,52.3,30.20,East,101,1.0,1.0,71,0.00,,,0.00,Wunderground v.1.15,2013-09-13 13:41:00,
2013-09-13 08:46:00,61.9,52.4,30.20,East,86,1.0,1.0,71,0.00,,,0.00,Wunderground v.1.15,2013-09-13 13:46:00,
2013-09-13 08:56:00,62.7,52.4,30.20,East,81,1.0,1.0,69,0.00,,,0.00,Wunderground v.1.15,2013-09-13 13:56:00,
2013-09-13 09:01:00,63.2,52.1,30.20,SE,125,1.0,1.0,67,0.00,,,0.00,Wunderground v.1.15,2013-09-13 14:01:00,
2013-09-13 09:11:00,63.0,51.9,30.20,ESE,117,2.0,2.0,67,0.00,,,0.00,Wunderground v.1.15,2013-09-13 14:11:00,
2013-09-13 09:16:00,63.7,54.1,30.20,East,98,1.0,4.0,71,0.00,,,0.00,Wunderground v.1.15,2013-09-13 14:16:00,
2013-09-13 09:26:00,63.1,52.8,30.20,ESE,107,3.0,4.0,69,0.00,,,0.00,Wunderground v.1.15,2013-09-13 14:26:00,
2013-09-13 09:31:00,63.4,52.2,30.20,ENE,68,3.0,3.0,67,0.00,,,0.00,Wunderground v.1.15,2013-09-13 14:31:00,
2013-09-13 09:41:00,63.9,53.1,30.20,East,96,2.0,3.0,68,0.00,,,0.00,Wunderground v.1.15,2013-09-13 14:41:00,
2013-09-13 09:46:00,64.5,53.7,30.20,ENE,62,2.0,3.0,68,0.00,,,0.00,Wunderground v.1.15,2013-09-13 14:46:00,
2013-09-13 09:56:00,65.2,54.4,30.20,SE,134,2.0,2.0,68,0.00,,,0.00,Wunderground v.1.15,2013-09-13 14:56:00,
2013-09-13 10:06:00,66.4,54.7,30.20,ESE,115,1.0,2.0,66,0.00,,,0.00,Wunderground v.1.15,2013-09-13 15:06:00,
2013-09-13 10:16:00,66.5,54.4,30.20,ESE,118,2.0,2.0,65,0.00,,,0.00,Wunderground v.1.15,2013-09-13 15:16:00,
2013-09-13 10:26:00,67.1,53.6,30.21,ESE,108,2.0,4.0,62,0.00,,,0.00,Wunderground v.1.15,2013-09-13 15:26:00,
2013-09-13 10:36:00,67.3,53.4,30.20,ENE,63,2.0,3.0,61,0.00,,,0.00,Wunderground v.1.15,2013-09-13 15:36:00,
2013-09-13 10:46:00,67.4,53.5,30.20,ESE,106,3.0,6.0,61,0.00,,,0.00,Wunderground v.1.15,2013-09-13 15:46:00,
2013-09-13 10:51:00,67.8,53.9,30.20,ENE,74,3.0,3.0,61,0.00,,,0.00,Wunderground v.1.15,2013-09-13 15:51:00,
2013-09-13 11:01:00,69.1,53.7,30.20,ENE,68,1.0,2.0,58,0.00,,,0.00,Wunderground v.1.15,2013-09-13 16:01:00,
2013-09-13 11:06:00,69.4,54.0,30.20,SSW,210,1.0,2.0,58,0.00,,,0.00,Wunderground v.1.15,2013-09-13 16:06:00,
2013-09-13 11:16:00,69.3,53.9,30.20,WSW,252,2.0,4.0,58,0.00,,,0.00,Wunderground v.1.15,2013-09-13 16:16:00,
2013-09-13 11:21:00,69.7,54.3,30.20,East,90,2.0,3.0,58,0.00,,,0.00,Wunderground v.1.15,2013-09-13 16:21:00,
2013-09-13 11:31:00,70.2,53.3,30.19,East,89,2.0,4.0,55,0.00,,,0.00,Wunderground v.1.15,2013-09-13 16:31:00,
2013-09-13 11:41:00,70.3,52.4,30.19,ENE,57,2.0,2.0,53,0.00,,,0.00,Wunderground v.1.15,2013-09-13 16:41:00,
2013-09-13 11:51:00,70.6,52.6,30.19,East,79,2.0,2.0,53,0.00,,,0.00,Wunderground v.1.15,2013-09-13 16:51:00,
2013-09-13 12:01:00,71.6,52.5,30.18,ENE,74,1.0,1.0,51,0.00,,,0.00,Wunderground v.1.15,2013-09-13 17:01:00,
2013-09-13 12:11:00,71.7,51.0,30.18,ENE,70,2.0,2.0,48,0.00,,,0.00,Wunderground v.1.15,2013-09-13 17:11:00,
2013-09-13 12:21:00,72.6,52.9,30.17,North,4,1.0,2.0,50,0.00,,,0.00,Wunderground v.1.15,2013-09-13 17:21:00,
2013-09-13 12:31:00,71.5,51.9,30.17,NNW,348,2.0,2.0,50,0.00,,,0.00,Wunderground v.1.15,2013-09-13 17:31:00,
2013-09-13 12:36:00,71.9,51.1,30.17,NE,56,2.0,2.0,48,0.00,,,0.00,Wunderground v.1.15,2013-09-13 17:36:00,
2013-09-13 12:46:00,72.2,52.0,30.16,NE,51,2.0,2.0,49,0.00,,,0.00,Wunderground v.1.15,2013-09-13 17:46:00,
2013-09-13 12:51:00,72.7,54.1,30.16,NE,44,2.0,3.0,52,0.00,,,0.00,Wunderground v.1.15,2013-09-13 17:51:00,
2013-09-13 13:01:00,72.2,52.5,30.16,ENE,76,2.0,4.0,50,0.00,,,0.00,Wunderground v.1.15,2013-09-13 18:01:00,
2013-09-13 13:06:00,72.4,51.6,30.16,ENE,58,2.0,4.0,48,0.00,,,0.00,Wunderground v.1.15,2013-09-13 18:06:00,
2013-09-13 13:16:00,72.7,51.9,30.15,East,101,1.0,2.0,48,0.00,,,0.00,Wunderground v.1.15,2013-09-13 18:16:00,
2013-09-13 13:26:00,72.4,52.2,30.15,ENE,59,3.0,3.0,49,0.00,,,0.00,Wunderground v.1.15,2013-09-13 18:26:00,
2013-09-13 13:36:00,72.6,51.8,30.14,SSW,205,1.0,2.0,48,0.00,,,0.00,Wunderground v.1.15,2013-09-13 18:36:00,
2013-09-13 13:41:00,73.4,51.4,30.14,ESE,105,1.0,2.0,46,0.00,,,0.00,Wunderground v.1.15,2013-09-13 18:41:00,
2013-09-13 13:51:00,73.5,52.0,30.14,East,83,2.0,2.0,47,0.00,,,0.00,Wunderground v.1.15,2013-09-13 18:51:00,
2013-09-13 13:56:00,73.5,51.4,30.14,East,82,2.0,2.0,46,0.00,,,0.00,Wunderground v.1.15,2013-09-13 18:56:00,
2013-09-13 14:06:00,73.7,51.6,30.13,WNW,288,1.0,3.0,46,0.00,,,0.00,Wunderground v.1.15,2013-09-13 19:06:00,
2013-09-13 14:16:00,74.0,52.5,30.13,WNW,302,1.0,3.0,47,0.00,,,0.00,Wunderground v.1.15,2013-09-13 19:16:00,
2013-09-13 14:26:00,74.2,52.7,30.13,North,1,2.0,2.0,47,0.00,,,0.00,Wunderground v.1.15,2013-09-13 19:26:00,
2013-09-13 14:31:00,74.1,52.6,30.13,ENE,59,1.0,1.0,47,0.00,,,0.00,Wunderground v.1.15,2013-09-13 19:31:00,
2013-09-13 14:41:00,73.9,52.4,30.12,East,89,2.0,2.0,47,0.00,,,0.00,Wunderground v.1.15,2013-09-13 19:41:00,
2013-09-13 14:51:00,73.8,52.3,30.12,East,85,1.0,2.0,47,0.00,,,0.00,Wunderground v.1.15,2013-09-13 19:51:00,
2013-09-13 15:01:00,74.9,53.9,30.11,ENE,58,1.0,1.0,48,0.00,,,0.00,Wunderground v.1.15,2013-09-13 20:01:00,
2013-09-13 15:11:00,74.8,53.2,30.11,ENE,64,2.0,2.0,47,0.00,,,0.00,Wunderground v.1.15,2013-09-13 20:11:00,
2013-09-13 15:21:00,74.5,51.8,30.11,ENE,78,2.0,2.0,45,0.00,,,0.00,Wunderground v.1.15,2013-09-13 20:21:00,
2013-09-13 15:31:00,76.1,52.6,30.10,East,101,1.0,2.0,44,0.00,,,0.00,Wunderground v.1.15,2013-09-13 20:31:00,
2013-09-13 15:36:00,75.7,52.8,30.10,SE,132,1.0,3.0,45,0.00,,,0.00,Wunderground v.1.15,2013-09-13 20:36:00,
2013-09-13 15:46:00,74.9,52.7,30.10,NE,47,3.0,3.0,46,0.00,,,0.00,Wunderground v.1.15,2013-09-13 20:46:00,
2013-09-13 15:51:00,74.4,51.7,30.10,East,81,3.0,3.0,45,0.00,,,0.00,Wunderground v.1.15,2013-09-13 20:51:00,
2013-09-13 16:01:00,74.6,52.4,30.09,NE,39,2.0,2.0,46,0.00,,,0.00,Wunderground v.1.15,2013-09-13 21:01:00,
2013-09-13 16:11:00,74.9,52.1,30.09,ENE,60,1.0,3.0,45,0.00,,,0.00,Wunderground v.1.15,2013-09-13 21:11:00,
2013-09-13 16:21:00,74.9,53.3,30.09,East,101,1.0,2.0,47,0.00,,,0.00,Wunderground v.1.15,2013-09-13 21:21:00,
2013-09-13 16:26:00,74.7,53.7,30.09,East,95,2.0,3.0,48,0.00,,,0.00,Wunderground v.1.15,2013-09-13 21:26:00,
2013-09-13 16:36:00,74.9,52.7,30.09,ENE,59,2.0,3.0,46,0.00,,,0.00,Wunderground v.1.15,2013-09-13 21:36:00,
2013-09-13 16:46:00,74.8,52.6,30.09,SE,127,1.0,2.0,46,0.00,,,0.00,Wunderground v.1.15,2013-09-13 21:46:00,
2013-09-13 16:56:00,74.9,53.9,30.08,ENE,68,2.0,2.0,48,0.00,,,0.00,Wunderground v.1.15,2013-09-13 21:56:00,
2013-09-13 17:06:00,74.7,54.3,30.08,East,83,2.0,2.0,49,0.00,,,0.00,Wunderground v.1.15,2013-09-13 22:06:00,
2013-09-13 17:11:00,74.9,54.4,30.08,SE,134,1.0,2.0,49,0.00,,,0.00,Wunderground v.1.15,2013-09-13 22:11:00,
2013-09-13 17:21:00,74.4,53.4,30.08,ENE,57,3.0,3.0,48,0.00,,,0.00,Wunderground v.1.15,2013-09-13 22:21:00,
2013-09-13 17:26:00,74.1,52.6,30.08,ENE,72,2.0,3.0,47,0.00,,,0.00,Wunderground v.1.15,2013-09-13 22:26:00,
2013-09-13 17:36:00,74.2,53.8,30.08,NE,45,1.0,2.0,49,0.00,,,0.00,Wunderground v.1.15,2013-09-13 22:36:00,
2013-09-13 17:41:00,73.8,52.9,30.08,ENE,58,2.0,2.0,48,0.00,,,0.00,Wunderground v.1.15,2013-09-13 22:41:00,
2013-09-13 17:51:00,73.6,53.8,30.08,SE,139,1.0,1.0,50,0.00,,,0.00,Wunderground v.1.15,2013-09-13 22:51:00,
2013-09-13 18:01:00,73.6,53.3,30.08,East,89,2.0,2.0,49,0.00,,,0.00,Wunderground v.1.15,2013-09-13 23:01:00,
2013-09-13 18:11:00,72.7,53.0,30.07,East,82,1.0,1.0,50,0.00,,,0.00,Wunderground v.1.15,2013-09-13 23:11:00,
2013-09-13 18:16:00,72.5,53.3,30.07,ESE,106,2.0,2.0,51,0.00,,,0.00,Wunderground v.1.15,2013-09-13 23:16:00,
2013-09-13 18:26:00,71.9,53.3,30.07,ESE,105,1.0,6.0,52,0.00,,,0.00,Wunderground v.1.15,2013-09-13 23:26:00,
2013-09-13 18:36:00,71.4,52.9,30.06,East,81,2.0,2.0,52,0.00,,,0.00,Wunderground v.1.15,2013-09-13 23:36:00,
2013-09-13 18:46:00,71.0,53.0,30.07,East,94,1.0,2.0,53,0.00,,,0.00,Wunderground v.1.15,2013-09-13 23:46:00,
2013-09-13 18:51:00,70.7,53.2,30.06,East,84,0.0,0.0,54,0.00,,,0.00,Wunderground v.1.15,2013-09-13 23:51:00,
2013-09-13 18:56:00,70.3,52.9,30.06,East,82,1.0,1.0,54,0.00,,,0.00,Wunderground v.1.15,2013-09-13 23:56:00,
2013-09-13 19:06:00,69.8,52.4,30.06,ESE,103,2.0,2.0,54,0.00,,,0.00,Wunderground v.1.15,2013-09-14 00:06:00,
2013-09-13 19:16:00,69.4,53.0,30.06,East,84,1.0,3.0,56,0.00,,,0.00,Wunderground v.1.15,2013-09-14 00:16:00,
2013-09-13 19:21:00,69.0,53.1,30.05,ESE,113,0.0,0.0,57,0.00,,,0.00,Wunderground v.1.15,2013-09-14 00:21:00,
2013-09-13 19:31:00,68.4,53.0,30.05,ESE,113,0.0,0.0,58,0.00,,,0.00,Wunderground v.1.15,2013-09-14 00:31:00,
2013-09-13 19:36:00,68.0,53.1,30.05,ESE,115,0.0,0.0,59,0.00,,,0.00,Wunderground v.1.15,2013-09-14 00:36:00,
2013-09-13 19:46:00,67.4,53.0,30.05,ESE,113,0.0,0.0,60,0.00,,,0.00,Wunderground v.1.15,2013-09-14 00:46:00,
2013-09-13 19:51:00,67.3,52.9,30.05,ESE,115,0.0,1.0,60,0.00,,,0.00,Wunderground v.1.15,2013-09-14 00:51:00,
2013-09-13 20:01:00,66.9,53.0,30.05,ESE,111,0.0,1.0,61,0.00,,,0.00,Wunderground v.1.15,2013-09-14 01:01:00,
2013-09-13 20:11:00,66.6,53.2,30.05,East,82,0.0,0.0,62,0.00,,,0.00,Wunderground v.1.15,2013-09-14 01:11:00,
2013-09-13 20:21:00,66.0,53.5,30.05,East,98,0.0,0.0,64,0.00,,,0.00,Wunderground v.1.15,2013-09-14 01:21:00,
2013-09-13 20:26:00,65.5,53.4,30.05,East,99,0.0,0.0,65,0.00,,,0.00,Wunderground v.1.15,2013-09-14 01:26:00,
2013-09-13 20:36:00,65.2,53.1,30.06,East,99,0.0,0.0,65,0.00,,,0.00,Wunderground v.1.15,2013-09-14 01:36:00,
2013-09-13 20:41:00,65.0,52.9,30.06,East,99,0.0,0.0,65,0.00,,,0.00,Wunderground v.1.15,2013-09-14 01:41:00,
2013-09-13 20:46:00,64.8,53.2,30.06,East,98,0.0,0.0,66,0.00,,,0.00,Wunderground v.1.15,2013-09-14 01:46:00,
2013-09-13 20:51:00,64.5,52.9,30.06,East,99,0.0,0.0,66,0.00,,,0.00,Wunderground v.1.15,2013-09-14 01:51:00,
2013-09-13 20:56:00,64.1,52.9,30.06,East,98,0.0,0.0,67,0.00,,,0.00,Wunderground v.1.15,2013-09-14 01:56:00,
2013-09-13 21:01:00,64.1,52.9,30.06,East,99,0.0,0.0,67,0.00,,,0.00,Wunderground v.1.15,2013-09-14 02:01:00,
2013-09-13 21:06:00,63.7,53.3,30.07,East,99,0.0,0.0,69,0.00,,,0.00,Wunderground v.1.15,2013-09-14 02:06:00,
2013-09-13 21:11:00,63.2,53.6,30.07,East,99,0.0,0.0,71,0.00,,,0.00,Wunderground v.1.15,2013-09-14 02:11:00,
2013-09-13 21:16:00,63.0,53.4,30.07,East,99,0.0,0.0,71,0.00,,,0.00,Wunderground v.1.15,2013-09-14 02:16:00,
2013-09-13 21:21:00,63.0,53.4,30.07,East,98,0.0,0.0,71,0.00,,,0.00,Wunderground v.1.15,2013-09-14 02:21:00,
2013-09-13 21:26:00,63.0,53.1,30.06,East,98,0.0,0.0,70,0.00,,,0.00,Wunderground v.1.15,2013-09-14 02:26:00,
2013-09-13 21:36:00,62.3,54.3,30.06,East,99,0.0,0.0,75,0.00,,,0.00,Wunderground v.1.15,2013-09-14 02:36:00,
2013-09-13 21:41:00,62.0,53.6,30.06,East,101,0.0,1.0,74,0.00,,,0.00,Wunderground v.1.15,2013-09-14 02:41:00,
2013-09-13 21:46:00,61.8,53.1,30.06,East,101,0.0,1.0,73,0.00,,,0.00,Wunderground v.1.15,2013-09-14 02:46:00,
2013-09-13 21:51:00,61.9,52.8,30.06,East,101,0.0,0.0,72,0.00,,,0.00,Wunderground v.1.15,2013-09-14 02:51:00,
2013-09-13 21:56:00,61.8,53.1,30.06,East,101,0.0,0.0,73,0.00,,,0.00,Wunderground v.1.15,2013-09-14 02:56:00,
2013-09-13 22:06:00,61.4,52.7,30.06,ESE,103,0.0,0.0,73,0.00,,,0.00,Wunderground v.1.15,2013-09-14 03:06:00,
2013-09-13 22:16:00,61.5,53.5,30.06,ESE,108,0.0,0.0,75,0.00,,,0.00,Wunderground v.1.15,2013-09-14 03:16:00,
2013-09-13 22:21:00,61.2,53.6,30.06,ESE,107,0.0,0.0,76,0.00,,,0.00,Wunderground v.1.15,2013-09-14 03:21:00,
2013-09-13 22:26:00,60.9,52.9,30.06,ESE,108,0.0,0.0,75,0.00,,,0.00,Wunderground v.1.15,2013-09-14 03:26:00,
2013-09-13 22:36:00,60.5,52.9,30.06,ESE,108,0.0,0.0,76,0.00,,,0.00,Wunderground v.1.15,2013-09-14 03:36:00,
2013-09-13 22:46:00,60.2,53.7,30.06,ESE,107,0.0,0.0,79,0.00,,,0.00,Wunderground v.1.15,2013-09-14 03:46:00,
2013-09-13 22:56:00,59.5,53.3,30.06,ESE,107,0.0,0.0,80,0.00,,,0.00,Wunderground v.1.15,2013-09-14 03:56:00,
2013-09-13 23:01:00,59.3,53.1,30.06,ESE,108,0.0,0.0,80,0.00,,,0.00,Wunderground v.1.15,2013-09-14 04:01:00,
2013-09-13 23:06:00,58.8,53.0,30.06,ESE,108,0.0,0.0,81,0.00,,,0.00,Wunderground v.1.15,2013-09-14 04:06:00,
2013-09-13 23:11:00,58.6,53.5,30.06,ESE,108,0.0,0.0,83,0.00,,,0.00,Wunderground v.1.15,2013-09-14 04:11:00,
2013-09-13 23:16:00,58.3,53.2,30.06,ESE,107,0.0,0.0,83,0.00,,,0.00,Wunderground v.1.15,2013-09-14 04:16:00,
2013-09-13 23:26:00,58.7,53.2,30.05,ESE,108,0.0,0.0,82,0.00,,,0.00,Wunderground v.1.15,2013-09-14 04:26:00,
2013-09-13 23:36:00,58.5,53.4,30.05,East,99,0.0,0.0,83,0.00,,,0.00,Wunderground v.1.15,2013-09-14 04:36:00,
2013-09-13 23:46:00,58.1,53.3,30.05,East,100,0.0,0.0,84,0.00,,,0.00,Wunderground v.1.15,2013-09-14 04:46:00,
2013-09-13 23:51:00,57.9,52.8,30.05,East,100,0.0,0.0,83,0.00,,,0.00,Wunderground v.1.15,2013-09-14 04:51:00,